Millenium Air

Millenium Air Since 1998



 METAR AND TAF INFORMATION
METAR FOR LDPL
ADDS - METARS form results

(0128 UTC 19 July 2019)
Data provider http://aviationweather.gov/metar/data/
 
METAR text: LDPL 190100Z VRB01KT CAVOK 17/12 Q1014
Conditions at: LDPL (PULA , HR) observed 0100 UTC 19 July 2019
Temperature: 17.0°C (63°F)
Dewpoint: 12.0°C (54°F) [RH = 72%]
Pressure (altimeter): 29.94 inches Hg (1014.0 mb)
Winds: variable direction winds at 1 MPH (1 knots; 0.5 m/s)
Visibility: 6 or more miles (10+ km)
Ceiling: ceiling and visibility are OK
Clouds: unknown
Weather: no significant weather observed at this time

METAR text: LDPL 190030Z 00000KT CAVOK 17/13 Q1014
Conditions at: LDPL (PULA , HR) observed 0030 UTC 19 July 2019
Temperature: 17.0°C (63°F)
Dewpoint: 13.0°C (55°F) [RH = 77%]
Pressure (altimeter): 29.94 inches Hg (1014.0 mb)
Winds: calm
Visibility: 6 or more miles (10+ km)
Ceiling: ceiling and visibility are OK
Clouds: unknown
Weather: no significant weather observed at this time

Forecast for: LDPL (PULA , HR)
Text: TAF LDPL 182325Z 1900/2000 VRB02KT CAVOK TX30/1913Z TN19/1903Z
Forecast period: 0000 to 1000 UTC 19 July 2019
Forecast type: FROM: standard forecast or significant change
Winds: variable direction winds at 2 MPH (2 knots; 1.0 m/s)
Visibility: 6 or more miles 10+ km)
Ceiling: unknown
Clouds: missing
Weather: no significant weather forecast for this period
Text: BECMG 1910/1912 27008KT
Forecast period: 1000 to 1600 UTC 19 July 2019
Forecast type: BECOMING: Conditions expected to become as follows by 1200 UTC 19 July 2019
Winds: from the W (270 degrees) at 9 MPH (8 knots; 4.1 m/s)
Visibility: 6 or more miles 10+ km)
Ceiling: unknown
Clouds: missing
Weather: no significant weather forecast for this period
Text: BECMG 1916/1918 VRB02KT
Forecast period: 1600 UTC 19 July 2019 to 0000 UTC 20 July 2019
Forecast type: BECOMING: Conditions expected to become as follows by 1800 UTC 19 July 2019
Winds: variable direction winds at 2 MPH (2 knots; 1.0 m/s)
Visibility: 6 or more miles 10+ km)
Ceiling: unknown
Clouds: missing
Weather: no significant weather forecast for this period

 AIRPORT MAP

 RUNWAY INFORMATION
Runway 09 Runway length 9678 ft Runway width 148 ft
Runway elevation 169 ft Runway displaced threshold 0 ft Runway heading 88
Runway 27 Runway length 9678 ft Runway width 148 ft
Runway elevation 274 ft Runway displaced threshold 0 ft Runway heading 268

 AIRPORT FREQUENCIES
Type APP Name APP Frequency 118.4 MHZ
Type TWR Name TWR Frequency 120 MHZ

 AIRPORT NEAR NAVIGATION AIDS
Type NDB Name Cres Frequency 433 KHZ
Type NDB Name Kavran Frequency 265 KHZ
Type NDB Name Pula Frequency 352 KHZ
Type VOR-DME Name Pula Frequency 111250 KHZ